createdAt,value
2023-11-12T00:02:12.749Z,99054.00
2023-11-12T00:04:40.391Z,99061.00
2023-11-12T00:07:09.103Z,99053.00
2023-11-12T00:09:37.780Z,99058.00
2023-11-12T00:12:05.748Z,99058.00
2023-11-12T00:14:33.185Z,99060.00
2023-11-12T00:17:00.735Z,99068.00
2023-11-12T00:19:27.940Z,99062.00
2023-11-12T00:21:55.305Z,99060.00
2023-11-12T00:24:22.604Z,99066.00
2023-11-12T00:26:50.056Z,99062.00
2023-11-12T00:29:17.996Z,99068.00
2023-11-12T00:31:45.528Z,99068.00
2023-11-12T00:34:13.122Z,99068.00
2023-11-12T00:36:44.096Z,99063.00
2023-11-12T00:39:11.863Z,99067.00
2023-11-12T00:41:40.423Z,99068.00
2023-11-12T00:44:12.384Z,99065.00
2023-11-12T00:46:42.422Z,99067.00
2023-11-12T00:49:09.856Z,99067.00
2023-11-12T00:51:37.459Z,99068.00
2023-11-12T00:54:05.304Z,99068.00
2023-11-12T00:56:33.461Z,99073.00
2023-11-12T00:59:00.801Z,99071.00
2023-11-12T01:01:28.538Z,99075.00
2023-11-12T01:03:56.227Z,99075.00
2023-11-12T01:06:24.270Z,99070.00
2023-11-12T01:08:51.590Z,99064.00
2023-11-12T01:11:19.096Z,99070.00
2023-11-12T01:13:46.506Z,99068.00
2023-11-12T01:16:14.775Z,99065.00
2023-11-12T01:18:43.441Z,99065.00
2023-11-12T01:21:11.214Z,99063.00
2023-11-12T01:23:38.908Z,99070.00
2023-11-12T01:26:06.183Z,99064.00
2023-11-12T01:28:35.728Z,99068.00
2023-11-12T01:31:03.690Z,99072.00
2023-11-12T01:33:31.140Z,99066.00
2023-11-12T01:35:59.099Z,99066.00
2023-11-12T01:38:27.108Z,99068.00
2023-11-12T01:40:56.088Z,99071.00
2023-11-12T01:43:23.512Z,99067.00
2023-11-12T01:45:51.330Z,99069.00
2023-11-12T01:48:19.113Z,99063.00
2023-11-12T01:50:46.589Z,99063.00
2023-11-12T01:53:16.232Z,99070.00
2023-11-12T01:55:46.733Z,99059.00
2023-11-12T01:58:19.328Z,99060.00
2023-11-12T02:00:46.984Z,99061.00
2023-11-12T02:03:18.193Z,99060.00
2023-11-12T02:05:45.940Z,99061.00
2023-11-12T02:08:14.309Z,99064.00
2023-11-12T02:10:44.212Z,99065.00
2023-11-12T02:13:12.465Z,99067.00
2023-11-12T02:15:40.610Z,99068.00
2023-11-12T02:18:08.051Z,99075.00
2023-11-12T02:20:35.330Z,99074.00
2023-11-12T02:23:02.619Z,99059.00
2023-11-12T02:25:30.118Z,99062.00
2023-11-12T02:27:57.803Z,99065.00
2023-11-12T02:30:25.635Z,99064.00
2023-11-12T02:32:53.286Z,99058.00
2023-11-12T02:35:20.928Z,99061.00
2023-11-12T02:37:48.419Z,99060.00
2023-11-12T02:40:16.232Z,99062.00
2023-11-12T02:42:44.784Z,99063.00
2023-11-12T02:45:12.721Z,99063.00
2023-11-12T02:47:46.617Z,99061.00
2023-11-12T02:50:32.934Z,99065.00
2023-11-12T02:53:07.321Z,99061.00
2023-11-12T02:55:36.746Z,99071.00
2023-11-12T02:58:04.984Z,99072.00
2023-11-12T03:00:32.892Z,99076.00
2023-11-12T03:03:02.899Z,99078.00
2023-11-12T03:05:31.400Z,99081.00
2023-11-12T03:07:59.798Z,99073.00
2023-11-12T03:10:27.862Z,99078.00
2023-11-12T03:12:55.759Z,99080.00
2023-11-12T03:15:25.619Z,99075.00
2023-11-12T03:17:54.293Z,99076.00
2023-11-12T03:20:22.206Z,99073.00
2023-11-12T03:22:50.244Z,99073.00
2023-11-12T03:25:17.540Z,99082.00
2023-11-12T03:27:45.210Z,99078.00
2023-11-12T03:30:14.778Z,99078.00
2023-11-12T03:32:42.264Z,99077.00
2023-11-12T03:35:10.884Z,99072.00
2023-11-12T03:37:39.356Z,99075.00
2023-11-12T03:40:07.746Z,99076.00
2023-11-12T03:42:35.498Z,99080.00
2023-11-12T03:45:04.110Z,99078.00
2023-11-12T03:47:32.202Z,99080.00
2023-11-12T03:49:59.629Z,99076.00
2023-11-12T03:52:27.467Z,99072.00
2023-11-12T03:54:54.972Z,99069.00
2023-11-12T03:57:23.599Z,99074.00
2023-11-12T03:59:52.926Z,99078.00
2023-11-12T04:02:23.129Z,99076.00
2023-11-12T04:04:50.970Z,99074.00
2023-11-12T04:07:18.585Z,99078.00
2023-11-12T04:09:45.914Z,99078.00
2023-11-12T04:12:13.478Z,99078.00
2023-11-12T04:14:40.756Z,99087.00
2023-11-12T04:17:08.478Z,99079.00
2023-11-12T04:19:35.976Z,99083.00
2023-11-12T04:22:03.291Z,99086.00
2023-11-12T04:24:30.637Z,99089.00
2023-11-12T04:26:58.056Z,99087.00
2023-11-12T04:29:25.456Z,99082.00
2023-11-12T04:31:52.745Z,99088.00
2023-11-12T04:34:22.863Z,99086.00
2023-11-12T04:36:50.476Z,99086.00
2023-11-12T04:39:20.376Z,99091.00
2023-11-12T04:41:47.811Z,99085.00
2023-11-12T04:44:15.518Z,99089.00
2023-11-12T04:46:42.805Z,99078.00
2023-11-12T04:49:10.271Z,99082.00
2023-11-12T04:51:37.610Z,99091.00
2023-11-12T04:54:05.540Z,99096.00
2023-11-12T04:56:33.052Z,99093.00
2023-11-12T04:59:00.549Z,99098.00
2023-11-12T05:04:20.323Z,99104.00
2023-11-12T05:06:47.745Z,99110.00
2023-11-12T05:09:15.596Z,99108.00
2023-11-12T05:11:43.070Z,99111.00
2023-11-12T05:14:11.852Z,99111.00
2023-11-12T05:16:39.310Z,99115.00
2023-11-12T05:19:08.135Z,99122.00
2023-11-12T05:21:35.639Z,99119.00
2023-11-12T05:24:03.640Z,99123.00
2023-11-12T05:26:33.082Z,99122.00
2023-11-12T05:29:01.052Z,99123.00
2023-11-12T05:31:37.353Z,99120.00
2023-11-12T05:34:04.908Z,99127.00
2023-11-12T05:36:32.523Z,99124.00
2023-11-12T05:39:00.196Z,99132.00
2023-11-12T05:41:27.494Z,99131.00
2023-11-12T05:43:54.809Z,99137.00
2023-11-12T05:46:22.076Z,99135.00
2023-11-12T05:48:49.449Z,99138.00
2023-11-12T05:51:16.906Z,99148.00
2023-11-12T05:53:44.263Z,99151.00
2023-11-12T05:56:11.801Z,99153.00
2023-11-12T05:58:39.186Z,99152.00
2023-11-12T06:01:06.457Z,99152.00
2023-11-12T06:03:33.798Z,99153.00
2023-11-12T06:06:01.119Z,99149.00
2023-11-12T06:08:28.324Z,99147.00
2023-11-12T06:10:57.639Z,99148.00
2023-11-12T06:13:25.000Z,99147.00
2023-11-12T06:15:52.189Z,99150.00
2023-11-12T06:18:19.643Z,99154.00
2023-11-12T06:20:47.073Z,99151.00
2023-11-12T06:23:14.324Z,99159.00
2023-11-12T06:25:41.592Z,99159.00
2023-11-12T06:28:11.925Z,99153.00
2023-11-12T06:30:39.564Z,99159.00
2023-11-12T06:33:08.010Z,99165.00
2023-11-12T06:35:35.243Z,99160.00
2023-11-12T06:38:02.553Z,99155.00
2023-11-12T06:40:29.864Z,99160.00
2023-11-12T06:42:57.093Z,99163.00
2023-11-12T06:45:24.466Z,99168.00
2023-11-12T06:47:51.825Z,99174.00
2023-11-12T06:50:19.469Z,99175.00
2023-11-12T06:52:46.762Z,99177.00
2023-11-12T06:55:14.249Z,99178.00
2023-11-12T06:57:42.147Z,99184.00
2023-11-12T07:00:13.511Z,99188.00
2023-11-12T07:02:41.431Z,99186.00
2023-11-12T07:05:09.067Z,99183.00
2023-11-12T07:07:36.467Z,99183.00
2023-11-12T07:10:05.267Z,99187.00
2023-11-12T07:12:33.064Z,99180.00
2023-11-12T07:15:00.645Z,99179.00
2023-11-12T07:17:28.058Z,99182.00
2023-11-12T07:19:57.261Z,99177.00
2023-11-12T07:22:25.708Z,99187.00
2023-11-12T07:24:56.939Z,99186.00
2023-11-12T07:27:25.035Z,99185.00
2023-11-12T07:29:52.414Z,99190.00
2023-11-12T07:32:19.904Z,99180.00
2023-11-12T07:34:48.111Z,99179.00
2023-11-12T07:37:15.458Z,99187.00
2023-11-12T07:39:42.776Z,99187.00
2023-11-12T07:42:10.017Z,99185.00
2023-11-12T07:44:38.311Z,99182.00
2023-11-12T07:47:06.399Z,99183.00
2023-11-12T07:49:33.920Z,99183.00
2023-11-12T07:52:01.969Z,99185.00
2023-11-12T07:54:29.379Z,99190.00
2023-11-12T07:56:56.675Z,99189.00
2023-11-12T07:59:24.986Z,99195.00
2023-11-12T08:01:52.251Z,99194.00
2023-11-12T08:04:19.639Z,99192.00
2023-11-12T08:06:49.943Z,99192.00
2023-11-12T08:09:17.790Z,99190.00
2023-11-12T08:11:45.198Z,99192.00
2023-11-12T08:14:15.848Z,99201.00
2023-11-12T08:16:43.731Z,99205.00
2023-11-12T08:19:11.745Z,99205.00
2023-11-12T08:21:39.186Z,99216.00
2023-11-12T08:24:07.302Z,99210.00
2023-11-12T08:26:40.047Z,99209.00
2023-11-12T08:29:10.524Z,99210.00
2023-11-12T08:31:38.055Z,99211.00
2023-11-12T08:34:06.003Z,99211.00
2023-11-12T08:36:33.570Z,99214.00
2023-11-12T08:39:02.517Z,99220.00
2023-11-12T08:41:30.087Z,99218.00
2023-11-12T08:43:57.600Z,99225.00
2023-11-12T08:46:24.966Z,99234.00
2023-11-12T08:48:52.536Z,99234.00
2023-11-12T08:51:20.062Z,99231.00
2023-11-12T08:53:47.471Z,99233.00
2023-11-12T08:56:16.974Z,99231.00
2023-11-12T08:58:44.352Z,99235.00
2023-11-12T09:01:13.482Z,99243.00
2023-11-12T09:03:41.039Z,99238.00
2023-11-12T09:06:08.459Z,99244.00
2023-11-12T09:08:35.909Z,99245.00
2023-11-12T09:11:03.296Z,99239.00
2023-11-12T09:13:30.883Z,99236.00
2023-11-12T09:15:58.547Z,99245.00
2023-11-12T09:18:28.550Z,99249.00
2023-11-12T09:20:56.145Z,99246.00
2023-11-12T09:23:23.322Z,99249.00
2023-11-12T09:25:51.001Z,99257.00
2023-11-12T09:28:19.264Z,99272.00
2023-11-12T09:30:54.537Z,99272.00
2023-11-12T09:33:27.994Z,99272.00
2023-11-12T09:35:55.676Z,99271.00
2023-11-12T09:38:23.266Z,99276.00
2023-11-12T09:40:54.996Z,99274.00
2023-11-12T09:43:26.523Z,99260.00
2023-11-12T09:45:57.840Z,99268.00
2023-11-12T09:48:37.121Z,99270.00
2023-11-12T09:51:09.532Z,99262.00
2023-11-12T09:53:42.555Z,99273.00
2023-11-12T09:56:10.888Z,99273.00
2023-11-12T09:58:42.420Z,99277.00
2023-11-12T10:01:12.812Z,99271.00
2023-11-12T10:03:41.452Z,99271.00
2023-11-12T10:06:12.309Z,99274.00
2023-11-12T10:08:40.571Z,99271.00
2023-11-12T10:11:25.401Z,99282.00
2023-11-12T10:13:53.407Z,99273.00
2023-11-12T10:16:34.580Z,99274.00
2023-11-12T10:19:14.918Z,99278.00
2023-11-12T10:21:59.914Z,99277.00
2023-11-12T10:24:30.020Z,99279.00
2023-11-12T10:27:09.179Z,99285.00
2023-11-12T10:29:36.991Z,99275.00
2023-11-12T10:32:04.709Z,99278.00
2023-11-12T10:34:32.224Z,99281.00
2023-11-12T10:37:09.572Z,99280.00
2023-11-12T10:39:43.263Z,99276.00
2023-11-12T10:42:26.773Z,99280.00
2023-11-12T10:44:59.530Z,99278.00
2023-11-12T10:47:31.567Z,99274.00
2023-11-12T10:50:00.160Z,99286.00
2023-11-12T10:52:29.609Z,99281.00
2023-11-12T10:55:01.282Z,99281.00
2023-11-12T10:57:31.505Z,99279.00
2023-11-12T11:00:07.584Z,99280.00
2023-11-12T11:02:38.089Z,99282.00
2023-11-12T11:05:06.793Z,99281.00
2023-11-12T11:07:35.852Z,99277.00
2023-11-12T11:10:04.522Z,99277.00
2023-11-12T11:12:33.096Z,99267.00
2023-11-12T11:15:45.791Z,99269.00
2023-11-12T11:18:35.861Z,99269.00
2023-11-12T11:21:07.300Z,99275.00
2023-11-12T11:23:48.470Z,99275.00
2023-11-12T11:26:43.595Z,99273.00
2023-11-12T11:29:14.896Z,99272.00
2023-11-12T11:32:09.144Z,99276.00
2023-11-12T11:34:43.743Z,99274.00
2023-11-12T11:37:11.592Z,99266.00
2023-11-12T11:39:39.459Z,99266.00
2023-11-12T11:42:08.307Z,99273.00
2023-11-12T11:44:43.393Z,99263.00
2023-11-12T11:47:13.987Z,99263.00
2023-11-12T11:49:49.312Z,99262.00
2023-11-12T11:52:25.749Z,99258.00
2023-11-12T11:55:05.109Z,99255.00
2023-11-12T11:57:33.796Z,99263.00
2023-11-12T12:00:02.691Z,99253.00
2023-11-12T12:02:30.614Z,99255.00
2023-11-12T12:04:59.797Z,99252.00
2023-11-12T12:07:29.006Z,99256.00
2023-11-12T12:10:00.121Z,99258.00
2023-11-12T12:12:28.909Z,99263.00
2023-11-12T12:14:56.764Z,99253.00
2023-11-12T12:17:24.982Z,99257.00
2023-11-12T12:19:56.449Z,99257.00
2023-11-12T12:22:30.218Z,99257.00
2023-11-12T12:24:59.652Z,99253.00
2023-11-12T12:27:27.801Z,99254.00
2023-11-12T12:29:56.384Z,99253.00
2023-11-12T12:32:26.464Z,99255.00
2023-11-12T12:35:01.892Z,99259.00
2023-11-12T12:37:32.462Z,99258.00
2023-11-12T12:40:12.127Z,99253.00
2023-11-12T12:42:40.259Z,99261.00
2023-11-12T12:45:17.713Z,99263.00
2023-11-12T12:47:46.071Z,99258.00
2023-11-12T12:50:34.457Z,99253.00
2023-11-12T12:53:16.491Z,99263.00
2023-11-12T12:55:45.309Z,99264.00
2023-11-12T12:58:13.927Z,99253.00
2023-11-12T13:00:46.062Z,99250.00
2023-11-12T13:03:28.276Z,99248.00
2023-11-12T13:05:58.208Z,99249.00
2023-11-12T13:08:26.037Z,99248.00
2023-11-12T13:10:55.847Z,99252.00
2023-11-12T13:13:25.708Z,99250.00
2023-11-12T13:15:53.829Z,99242.00
2023-11-12T13:18:23.769Z,99251.00
2023-11-12T13:20:53.041Z,99246.00
2023-11-12T13:23:20.736Z,99249.00
2023-11-12T13:25:50.857Z,99261.00
2023-11-12T13:28:19.485Z,99258.00
2023-11-12T13:30:48.649Z,99265.00
2023-11-12T13:33:16.851Z,99265.00
2023-11-12T13:35:44.627Z,99265.00
2023-11-12T13:38:12.809Z,99268.00
2023-11-12T13:40:41.227Z,99274.00
2023-11-12T13:43:09.360Z,99272.00
2023-11-12T13:45:40.044Z,99275.00
2023-11-12T13:48:10.134Z,99284.00
2023-11-12T13:50:37.992Z,99272.00
2023-11-12T13:53:11.121Z,99278.00
2023-11-12T13:55:42.846Z,99278.00
2023-11-12T13:58:14.923Z,99274.00
2023-11-12T14:00:43.619Z,99283.00
2023-11-12T14:03:12.484Z,99278.00
2023-11-12T14:05:40.588Z,99277.00
2023-11-12T14:08:11.567Z,99284.00
2023-11-12T14:10:41.065Z,99284.00
2023-11-12T14:13:10.742Z,99283.00
2023-11-12T14:15:40.600Z,99290.00
2023-11-12T14:18:08.666Z,99289.00
2023-11-12T14:20:36.389Z,99304.00
2023-11-12T14:23:04.126Z,99307.00
2023-11-12T14:25:31.805Z,99305.00
2023-11-12T14:27:59.808Z,99318.00
2023-11-12T14:30:27.597Z,99313.00
2023-11-12T14:32:55.228Z,99313.00
2023-11-12T14:35:24.150Z,99316.00
2023-11-12T14:37:52.155Z,99310.00
2023-11-12T14:40:20.222Z,99313.00
2023-11-12T14:42:48.029Z,99323.00
2023-11-12T14:47:46.895Z,99324.00
2023-11-12T14:50:17.817Z,99323.00
2023-11-12T14:52:45.824Z,99322.00
2023-11-12T14:55:22.020Z,99335.00
2023-11-12T14:57:56.635Z,99336.00
2023-11-12T15:00:31.594Z,99337.00
2023-11-12T15:03:00.414Z,99342.00
2023-11-12T15:05:31.883Z,99342.00
2023-11-12T15:07:59.679Z,99340.00
2023-11-12T15:10:27.651Z,99345.00
2023-11-12T15:12:55.603Z,99342.00
2023-11-12T15:15:23.341Z,99342.00
2023-11-12T15:17:54.424Z,99341.00
2023-11-12T15:20:22.300Z,99343.00
2023-11-12T15:22:52.250Z,99339.00
2023-11-12T15:25:21.048Z,99344.00
2023-11-12T15:27:52.394Z,99342.00
2023-11-12T15:30:21.191Z,99342.00
2023-11-12T15:32:49.358Z,99340.00
2023-11-12T15:35:17.917Z,99337.00
2023-11-12T15:37:45.624Z,99334.00
2023-11-12T15:40:21.163Z,99340.00
2023-11-12T15:42:52.254Z,99345.00
2023-11-12T15:45:20.959Z,99343.00
2023-11-12T15:47:49.292Z,99345.00
2023-11-12T15:50:18.199Z,99357.00
2023-11-12T15:52:47.514Z,99349.00
2023-11-12T15:55:16.679Z,99352.00
2023-11-12T15:57:45.647Z,99354.00
2023-11-12T16:00:15.553Z,99350.00
2023-11-12T16:02:45.614Z,99350.00
2023-11-12T16:05:16.182Z,99355.00
2023-11-12T16:07:45.173Z,99364.00
2023-11-12T16:10:15.961Z,99362.00
2023-11-12T16:12:44.037Z,99361.00
2023-11-12T16:15:17.111Z,99356.00
2023-11-12T16:17:45.540Z,99359.00
2023-11-12T16:20:14.288Z,99362.00
2023-11-12T16:22:42.455Z,99359.00
2023-11-12T16:25:10.804Z,99355.00
2023-11-12T16:27:39.471Z,99350.00
2023-11-12T16:30:13.358Z,99360.00
2023-11-12T16:32:41.520Z,99361.00
2023-11-12T16:35:12.922Z,99364.00
2023-11-12T16:37:49.269Z,99359.00
2023-11-12T16:40:19.896Z,99360.00
2023-11-12T16:42:50.415Z,99357.00
2023-11-12T16:45:18.983Z,99365.00
2023-11-12T16:47:46.991Z,99360.00
2023-11-12T16:50:17.336Z,99372.00
2023-11-12T16:52:45.074Z,99367.00
2023-11-12T16:55:12.953Z,99364.00
2023-11-12T16:57:41.011Z,99371.00
2023-11-12T17:00:09.547Z,99370.00
2023-11-12T17:02:37.638Z,99363.00
2023-11-12T17:05:09.055Z,99366.00
2023-11-12T17:07:36.862Z,99375.00
2023-11-12T17:10:05.743Z,99383.00
2023-11-12T17:12:34.198Z,99375.00
2023-11-12T17:15:03.529Z,99371.00
2023-11-12T17:17:31.275Z,99378.00
2023-11-12T17:20:00.543Z,99385.00
2023-11-12T17:22:29.450Z,99384.00
2023-11-12T17:24:59.187Z,99393.00
2023-11-12T17:27:28.206Z,99395.00
2023-11-12T17:29:56.769Z,99389.00
2023-11-12T17:32:26.356Z,99396.00
2023-11-12T17:34:54.688Z,99408.00
2023-11-12T17:37:22.371Z,99405.00
2023-11-12T17:39:50.138Z,99412.00
2023-11-12T17:42:18.043Z,99417.00
2023-11-12T17:44:47.139Z,99415.00
2023-11-12T17:47:17.758Z,99418.00
2023-11-12T17:49:56.516Z,99416.00
2023-11-12T17:52:25.048Z,99415.00
2023-11-12T17:54:53.139Z,99415.00
2023-11-12T17:57:28.155Z,99419.00
2023-11-12T17:59:59.934Z,99423.00
2023-11-12T18:02:27.692Z,99419.00
2023-11-12T18:04:55.595Z,99423.00
2023-11-12T18:07:23.477Z,99425.00
2023-11-12T18:09:51.276Z,99425.00
2023-11-12T18:12:19.239Z,99412.00
2023-11-12T18:14:46.924Z,99408.00
2023-11-12T18:17:14.929Z,99412.00
2023-11-12T18:19:42.591Z,99413.00
2023-11-12T18:22:13.200Z,99409.00
2023-11-12T18:24:41.008Z,99408.00
2023-11-12T18:27:08.674Z,99409.00
2023-11-12T18:29:36.346Z,99413.00
2023-11-12T18:32:05.283Z,99420.00
2023-11-12T18:34:33.807Z,99414.00
2023-11-12T18:37:01.647Z,99417.00
2023-11-12T18:39:29.378Z,99413.00
2023-11-12T18:41:57.094Z,99426.00
2023-11-12T18:44:25.036Z,99421.00
2023-11-12T18:46:52.887Z,99436.00
2023-11-12T18:49:20.758Z,99435.00
2023-11-12T18:51:48.452Z,99426.00
2023-11-12T18:54:16.204Z,99430.00
2023-11-12T18:56:44.238Z,99432.00
2023-11-12T18:59:12.934Z,99442.00
2023-11-12T19:01:42.650Z,99448.00
2023-11-12T19:04:10.467Z,99443.00
2023-11-12T19:06:39.390Z,99445.00
2023-11-12T19:09:13.818Z,99446.00
2023-11-12T19:11:42.309Z,99446.00
2023-11-12T19:14:12.343Z,99447.00
2023-11-12T19:16:41.275Z,99461.00
2023-11-12T19:19:18.214Z,99453.00
2023-11-12T19:21:46.896Z,99461.00
2023-11-12T19:24:15.828Z,99460.00
2023-11-12T19:26:43.649Z,99460.00
2023-11-12T19:29:13.161Z,99461.00
2023-11-12T19:31:40.845Z,99462.00
2023-11-12T19:34:10.366Z,99467.00
2023-11-12T19:36:40.847Z,99465.00
2023-11-12T19:39:14.532Z,99470.00
2023-11-12T19:41:43.489Z,99471.00
2023-11-12T19:44:11.517Z,99472.00
2023-11-12T19:46:48.471Z,99482.00
2023-11-12T19:49:16.462Z,99480.00
2023-11-12T19:51:44.648Z,99477.00
2023-11-12T19:54:12.624Z,99494.00
2023-11-12T19:56:41.059Z,99487.00
2023-11-12T19:59:14.826Z,99495.00
2023-11-12T20:01:42.894Z,99500.00
2023-11-12T20:04:11.701Z,99509.00
2023-11-12T20:06:39.451Z,99512.00
2023-11-12T20:09:07.191Z,99520.00
2023-11-12T20:11:35.491Z,99514.00
2023-11-12T20:14:06.266Z,99515.00
2023-11-12T20:16:34.941Z,99523.00
2023-11-12T20:19:03.174Z,99516.00
2023-11-12T20:21:30.929Z,99511.00
2023-11-12T20:23:58.736Z,99518.00
2023-11-12T20:26:26.578Z,99528.00
2023-11-12T20:28:54.240Z,99525.00
2023-11-12T20:31:22.157Z,99522.00
2023-11-12T20:33:52.314Z,99515.00
2023-11-12T20:36:20.002Z,99518.00
2023-11-12T20:38:47.707Z,99533.00
2023-11-12T20:41:15.342Z,99529.00
2023-11-12T20:43:44.017Z,99533.00
2023-11-12T20:46:13.260Z,99526.00
2023-11-12T20:48:42.571Z,99530.00
2023-11-12T20:51:10.235Z,99520.00
2023-11-12T20:53:37.885Z,99536.00
2023-11-12T20:56:05.984Z,99529.00
2023-11-12T20:58:35.651Z,99531.00
2023-11-12T21:01:04.069Z,99536.00
2023-11-12T21:03:34.220Z,99532.00
2023-11-12T21:06:01.904Z,99518.00
2023-11-12T21:08:29.663Z,99513.00
2023-11-12T21:10:57.672Z,99514.00
2023-11-12T21:13:25.372Z,99509.00
2023-11-12T21:15:53.945Z,99509.00
2023-11-12T21:18:24.451Z,99504.00
2023-11-12T21:20:52.196Z,99503.00
2023-11-12T21:23:20.290Z,99495.00
2023-11-12T21:25:48.266Z,99494.00
2023-11-12T21:28:16.006Z,99500.00
2023-11-12T21:30:45.773Z,99498.00
2023-11-12T21:33:15.245Z,99503.00
2023-11-12T21:35:49.910Z,99501.00
2023-11-12T21:38:17.690Z,99508.00
2023-11-12T21:40:46.385Z,99508.00
2023-11-12T21:43:14.454Z,99493.00
2023-11-12T21:45:43.329Z,99502.00
2023-11-12T21:48:13.794Z,99508.00
2023-11-12T21:50:41.504Z,99512.00
2023-11-12T21:53:10.730Z,99503.00
2023-11-12T21:55:38.687Z,99504.00
2023-11-12T21:58:06.302Z,99499.00
2023-11-12T22:00:35.729Z,99499.00
2023-11-12T22:03:05.680Z,99514.00
2023-11-12T22:05:33.987Z,99510.00
2023-11-12T22:08:01.761Z,99511.00
2023-11-12T22:10:29.913Z,99519.00
2023-11-12T22:13:00.814Z,99528.00
2023-11-12T22:15:29.039Z,99519.00
2023-11-12T22:17:56.810Z,99530.00
2023-11-12T22:20:25.062Z,99525.00
2023-11-12T22:22:52.826Z,99531.00
2023-11-12T22:25:21.908Z,99540.00
2023-11-12T22:27:51.076Z,99546.00
2023-11-12T22:30:20.154Z,99548.00
2023-11-12T22:32:48.357Z,99557.00
2023-11-12T22:35:16.298Z,99561.00
2023-11-12T22:37:44.141Z,99563.00
2023-11-12T22:40:13.373Z,99562.00
2023-11-12T22:42:41.447Z,99566.00
2023-11-12T22:45:15.668Z,99571.00
2023-11-12T22:47:44.068Z,99571.00
2023-11-12T22:50:18.845Z,99575.00
2023-11-12T22:52:46.595Z,99573.00
2023-11-12T22:55:14.420Z,99569.00
2023-11-12T22:57:45.086Z,99577.00
2023-11-12T23:02:55.487Z,99576.00
2023-11-12T23:05:23.318Z,99571.00
2023-11-12T23:07:50.977Z,99575.00
2023-11-12T23:10:18.916Z,99580.00
2023-11-12T23:12:46.694Z,99586.00
2023-11-12T23:15:14.564Z,99588.00
2023-11-12T23:17:43.011Z,99586.00
2023-11-12T23:20:11.149Z,99582.00
2023-11-12T23:22:39.022Z,99579.00
2023-11-12T23:25:07.941Z,99581.00
2023-11-12T23:27:35.538Z,99590.00
2023-11-12T23:30:03.384Z,99589.00
2023-11-12T23:32:31.042Z,99582.00
2023-11-12T23:34:58.667Z,99592.00
2023-11-12T23:37:26.253Z,99591.00
2023-11-12T23:39:56.333Z,99592.00
2023-11-12T23:42:26.849Z,99597.00
2023-11-12T23:44:54.891Z,99589.00
2023-11-12T23:47:22.518Z,99593.00
2023-11-12T23:49:51.175Z,99591.00
2023-11-12T23:52:19.707Z,99598.00
2023-11-12T23:54:50.506Z,99604.00
2023-11-12T23:57:18.438Z,99606.00
2023-11-12T23:59:46.199Z,99605.00
